sensor_id;sensor_type;location;lat;lon;timestamp;P1;durP1;ratioP1;P2;durP2;ratioP2
5612;SDS011;63463;53.586;9.928;2023-02-14T00:01:38;46.03;;;20.13;;
5612;SDS011;63463;53.586;9.928;2023-02-14T00:04:04;47.53;;;19.67;;
5612;SDS011;63463;53.586;9.928;2023-02-14T00:06:30;51.83;;;22.30;;
5612;SDS011;63463;53.586;9.928;2023-02-14T00:08:59;49.90;;;20.80;;
5612;SDS011;63463;53.586;9.928;2023-02-14T00:11:25;41.80;;;19.33;;
5612;SDS011;63463;53.586;9.928;2023-02-14T00:13:51;46.00;;;20.50;;
5612;SDS011;63463;53.586;9.928;2023-02-14T00:16:36;47.53;;;21.00;;
5612;SDS011;63463;53.586;9.928;2023-02-14T00:19:02;51.33;;;21.70;;
5612;SDS011;63463;53.586;9.928;2023-02-14T00:21:28;52.23;;;20.03;;
5612;SDS011;63463;53.586;9.928;2023-02-14T00:23:54;47.50;;;19.50;;
5612;SDS011;63463;53.586;9.928;2023-02-14T00:26:20;49.27;;;20.90;;
5612;SDS011;63463;53.586;9.928;2023-02-14T00:28:46;49.67;;;21.30;;
5612;SDS011;63463;53.586;9.928;2023-02-14T00:31:12;54.90;;;22.40;;
5612;SDS011;63463;53.586;9.928;2023-02-14T00:33:38;52.00;;;21.13;;
5612;SDS011;63463;53.586;9.928;2023-02-14T00:36:05;43.23;;;19.63;;
5612;SDS011;63463;53.586;9.928;2023-02-14T00:38:31;50.93;;;20.90;;
5612;SDS011;63463;53.586;9.928;2023-02-14T00:40:58;50.13;;;21.80;;
5612;SDS011;63463;53.586;9.928;2023-02-14T00:43:23;49.33;;;20.60;;
5612;SDS011;63463;53.586;9.928;2023-02-14T00:45:50;73.17;;;23.53;;
5612;SDS011;63463;53.586;9.928;2023-02-14T00:48:16;57.03;;;22.80;;
5612;SDS011;63463;53.586;9.928;2023-02-14T00:50:42;55.10;;;20.97;;
5612;SDS011;63463;53.586;9.928;2023-02-14T00:53:10;50.43;;;21.00;;
5612;SDS011;63463;53.586;9.928;2023-02-14T00:55:36;46.67;;;20.13;;
5612;SDS011;63463;53.586;9.928;2023-02-14T00:58:02;48.30;;;20.70;;
5612;SDS011;63463;53.586;9.928;2023-02-14T01:00:28;47.70;;;19.97;;
5612;SDS011;63463;53.586;9.928;2023-02-14T01:02:54;50.83;;;20.57;;
5612;SDS011;63463;53.586;9.928;2023-02-14T01:05:20;50.60;;;21.23;;
5612;SDS011;63463;53.586;9.928;2023-02-14T01:07:46;47.53;;;20.67;;
5612;SDS011;63463;53.586;9.928;2023-02-14T01:10:12;54.87;;;20.37;;
5612;SDS011;63463;53.586;9.928;2023-02-14T01:12:38;46.13;;;20.50;;
5612;SDS011;63463;53.586;9.928;2023-02-14T01:15:04;54.10;;;22.37;;
5612;SDS011;63463;53.586;9.928;2023-02-14T01:17:30;51.37;;;20.57;;
5612;SDS011;63463;53.586;9.928;2023-02-14T01:19:56;48.73;;;19.90;;
5612;SDS011;63463;53.586;9.928;2023-02-14T01:22:22;43.80;;;19.57;;
5612;SDS011;63463;53.586;9.928;2023-02-14T01:24:48;45.50;;;19.37;;
5612;SDS011;63463;53.586;9.928;2023-02-14T01:27:14;45.17;;;19.53;;
5612;SDS011;63463;53.586;9.928;2023-02-14T01:29:39;57.33;;;20.90;;
5612;SDS011;63463;53.586;9.928;2023-02-14T01:32:05;51.70;;;20.90;;
5612;SDS011;63463;53.586;9.928;2023-02-14T01:34:33;46.70;;;20.20;;
5612;SDS011;63463;53.586;9.928;2023-02-14T01:36:59;48.07;;;21.43;;
5612;SDS011;63463;53.586;9.928;2023-02-14T01:39:25;47.10;;;20.60;;
5612;SDS011;63463;53.586;9.928;2023-02-14T01:41:51;46.20;;;19.97;;
5612;SDS011;63463;53.586;9.928;2023-02-14T01:46:48;57.47;;;21.57;;
5612;SDS011;63463;53.586;9.928;2023-02-14T01:49:19;50.60;;;18.87;;
5612;SDS011;63463;53.586;9.928;2023-02-14T01:51:49;46.73;;;20.70;;
5612;SDS011;63463;53.586;9.928;2023-02-14T01:54:17;52.67;;;21.50;;
5612;SDS011;63463;53.586;9.928;2023-02-14T01:56:46;48.83;;;20.27;;
5612;SDS011;63463;53.586;9.928;2023-02-14T01:59:15;47.33;;;20.40;;
5612;SDS011;63463;53.586;9.928;2023-02-14T02:01:43;54.40;;;22.23;;
5612;SDS011;63463;53.586;9.928;2023-02-14T02:04:11;48.93;;;21.23;;
5612;SDS011;63463;53.586;9.928;2023-02-14T02:06:44;49.80;;;21.33;;
5612;SDS011;63463;53.586;9.928;2023-02-14T02:09:21;52.07;;;20.70;;
5612;SDS011;63463;53.586;9.928;2023-02-14T02:11:50;50.73;;;20.23;;
5612;SDS011;63463;53.586;9.928;2023-02-14T02:14:17;50.23;;;21.40;;
5612;SDS011;63463;53.586;9.928;2023-02-14T02:19:20;52.80;;;20.50;;
5612;SDS011;63463;53.586;9.928;2023-02-14T02:21:56;47.13;;;20.00;;
5612;SDS011;63463;53.586;9.928;2023-02-14T02:24:27;58.70;;;22.83;;
5612;SDS011;63463;53.586;9.928;2023-02-14T02:40:19;53.17;;;21.57;;
5612;SDS011;63463;53.586;9.928;2023-02-14T02:43:01;44.03;;;20.97;;
5612;SDS011;63463;53.586;9.928;2023-02-14T02:48:39;45.13;;;20.27;;
5612;SDS011;63463;53.586;9.928;2023-02-14T02:51:06;60.43;;;22.00;;
5612;SDS011;63463;53.586;9.928;2023-02-14T02:54:01;47.73;;;19.30;;
5612;SDS011;63463;53.586;9.928;2023-02-14T02:56:39;45.10;;;19.97;;
5612;SDS011;63463;53.586;9.928;2023-02-14T02:59:26;55.20;;;22.40;;
5612;SDS011;63463;53.586;9.928;2023-02-14T03:01:56;49.57;;;21.20;;
5612;SDS011;63463;53.586;9.928;2023-02-14T03:04:24;51.77;;;22.20;;
5612;SDS011;63463;53.586;9.928;2023-02-14T03:07:10;51.43;;;20.00;;
5612;SDS011;63463;53.586;9.928;2023-02-14T03:09:56;58.50;;;21.90;;
5612;SDS011;63463;53.586;9.928;2023-02-14T03:22:59;52.53;;;21.87;;
5612;SDS011;63463;53.586;9.928;2023-02-14T03:25:35;50.63;;;21.20;;
5612;SDS011;63463;53.586;9.928;2023-02-14T03:28:17;54.57;;;21.80;;
5612;SDS011;63463;53.586;9.928;2023-02-14T03:33:29;45.30;;;20.70;;
5612;SDS011;63463;53.586;9.928;2023-02-14T03:36:00;52.20;;;21.90;;
5612;SDS011;63463;53.586;9.928;2023-02-14T03:40:58;51.00;;;22.40;;
5612;SDS011;63463;53.586;9.928;2023-02-14T03:43:29;50.70;;;21.00;;
5612;SDS011;63463;53.586;9.928;2023-02-14T03:46:00;51.83;;;20.43;;
5612;SDS011;63463;53.586;9.928;2023-02-14T03:48:28;55.43;;;22.77;;
5612;SDS011;63463;53.586;9.928;2023-02-14T03:50:55;45.07;;;20.93;;
5612;SDS011;63463;53.586;9.928;2023-02-14T03:53:24;60.60;;;22.80;;
5612;SDS011;63463;53.586;9.928;2023-02-14T03:55:57;61.13;;;23.10;;
5612;SDS011;63463;53.586;9.928;2023-02-14T03:58:27;49.63;;;23.07;;
5612;SDS011;63463;53.586;9.928;2023-02-14T04:00:57;52.97;;;21.50;;
5612;SDS011;63463;53.586;9.928;2023-02-14T04:03:24;53.13;;;22.40;;
5612;SDS011;63463;53.586;9.928;2023-02-14T04:05:52;59.37;;;22.40;;
5612;SDS011;63463;53.586;9.928;2023-02-14T04:08:22;58.13;;;22.90;;
5612;SDS011;63463;53.586;9.928;2023-02-14T04:10:49;58.30;;;25.17;;
5612;SDS011;63463;53.586;9.928;2023-02-14T04:13:15;53.93;;;22.50;;
5612;SDS011;63463;53.586;9.928;2023-02-14T04:15:41;56.50;;;21.27;;
5612;SDS011;63463;53.586;9.928;2023-02-14T04:18:07;57.43;;;23.30;;
5612;SDS011;63463;53.586;9.928;2023-02-14T04:20:52;48.33;;;21.00;;
5612;SDS011;63463;53.586;9.928;2023-02-14T04:23:18;60.57;;;23.70;;
5612;SDS011;63463;53.586;9.928;2023-02-14T04:25:44;58.17;;;23.07;;
5612;SDS011;63463;53.586;9.928;2023-02-14T04:28:11;58.90;;;22.83;;
5612;SDS011;63463;53.586;9.928;2023-02-14T04:30:38;56.17;;;22.30;;
5612;SDS011;63463;53.586;9.928;2023-02-14T04:33:04;58.60;;;23.80;;
5612;SDS011;63463;53.586;9.928;2023-02-14T04:35:32;59.63;;;23.20;;
5612;SDS011;63463;53.586;9.928;2023-02-14T04:37:58;57.40;;;23.20;;
5612;SDS011;63463;53.586;9.928;2023-02-14T04:40:25;54.43;;;22.63;;
5612;SDS011;63463;53.586;9.928;2023-02-14T04:42:51;71.23;;;24.10;;
5612;SDS011;63463;53.586;9.928;2023-02-14T04:45:17;55.50;;;22.23;;
5612;SDS011;63463;53.586;9.928;2023-02-14T04:47:43;59.97;;;23.30;;
5612;SDS011;63463;53.586;9.928;2023-02-14T04:50:13;56.43;;;23.77;;
5612;SDS011;63463;53.586;9.928;2023-02-14T04:52:39;59.37;;;24.63;;
5612;SDS011;63463;53.586;9.928;2023-02-14T04:55:07;73.73;;;23.97;;
5612;SDS011;63463;53.586;9.928;2023-02-14T04:57:33;64.63;;;23.37;;
5612;SDS011;63463;53.586;9.928;2023-02-14T04:59:59;57.67;;;24.37;;
5612;SDS011;63463;53.586;9.928;2023-02-14T05:02:25;60.07;;;24.70;;
5612;SDS011;63463;53.586;9.928;2023-02-14T05:04:52;59.23;;;23.43;;
5612;SDS011;63463;53.586;9.928;2023-02-14T05:07:18;62.17;;;23.10;;
5612;SDS011;63463;53.586;9.928;2023-02-14T05:09:44;69.13;;;23.77;;
5612;SDS011;63463;53.586;9.928;2023-02-14T05:12:14;58.77;;;23.57;;
5612;SDS011;63463;53.586;9.928;2023-02-14T05:14:48;62.30;;;23.67;;
5612;SDS011;63463;53.586;9.928;2023-02-14T05:17:14;61.03;;;24.40;;
5612;SDS011;63463;53.586;9.928;2023-02-14T05:19:40;65.77;;;23.40;;
5612;SDS011;63463;53.586;9.928;2023-02-14T05:22:06;53.63;;;20.87;;
5612;SDS011;63463;53.586;9.928;2023-02-14T05:24:32;71.73;;;24.33;;
5612;SDS011;63463;53.586;9.928;2023-02-14T05:26:58;60.67;;;24.70;;
5612;SDS011;63463;53.586;9.928;2023-02-14T05:29:24;65.27;;;24.43;;
5612;SDS011;63463;53.586;9.928;2023-02-14T05:31:50;67.20;;;25.33;;
5612;SDS011;63463;53.586;9.928;2023-02-14T05:34:16;53.77;;;21.73;;
5612;SDS011;63463;53.586;9.928;2023-02-14T05:36:42;63.33;;;23.33;;
5612;SDS011;63463;53.586;9.928;2023-02-14T05:39:08;52.27;;;22.57;;
5612;SDS011;63463;53.586;9.928;2023-02-14T05:41:38;46.97;;;20.80;;
5612;SDS011;63463;53.586;9.928;2023-02-14T05:44:04;60.57;;;25.80;;
5612;SDS011;63463;53.586;9.928;2023-02-14T05:46:30;55.30;;;22.73;;
5612;SDS011;63463;53.586;9.928;2023-02-14T05:48:56;55.60;;;22.30;;
5612;SDS011;63463;53.586;9.928;2023-02-14T05:51:22;58.30;;;22.30;;
5612;SDS011;63463;53.586;9.928;2023-02-14T05:53:48;56.80;;;23.77;;
5612;SDS011;63463;53.586;9.928;2023-02-14T05:56:14;61.07;;;23.27;;
5612;SDS011;63463;53.586;9.928;2023-02-14T05:58:39;60.93;;;22.47;;
5612;SDS011;63463;53.586;9.928;2023-02-14T06:01:05;57.93;;;23.90;;
5612;SDS011;63463;53.586;9.928;2023-02-14T06:03:31;71.27;;;22.50;;
5612;SDS011;63463;53.586;9.928;2023-02-14T06:05:57;64.13;;;23.83;;
5612;SDS011;63463;53.586;9.928;2023-02-14T06:08:23;66.90;;;24.20;;
5612;SDS011;63463;53.586;9.928;2023-02-14T06:10:49;54.93;;;22.13;;
5612;SDS011;63463;53.586;9.928;2023-02-14T06:13:15;62.97;;;24.10;;
5612;SDS011;63463;53.586;9.928;2023-02-14T06:15:41;54.53;;;22.33;;
5612;SDS011;63463;53.586;9.928;2023-02-14T06:18:07;53.57;;;21.70;;
5612;SDS011;63463;53.586;9.928;2023-02-14T06:20:33;50.70;;;21.60;;
5612;SDS011;63463;53.586;9.928;2023-02-14T06:23:00;55.37;;;23.67;;
5612;SDS011;63463;53.586;9.928;2023-02-14T06:25:26;66.40;;;23.87;;
5612;SDS011;63463;53.586;9.928;2023-02-14T06:27:55;59.10;;;23.53;;
5612;SDS011;63463;53.586;9.928;2023-02-14T06:30:21;57.67;;;23.67;;
5612;SDS011;63463;53.586;9.928;2023-02-14T06:32:47;55.53;;;22.20;;
5612;SDS011;63463;53.586;9.928;2023-02-14T06:35:14;60.77;;;23.00;;
5612;SDS011;63463;53.586;9.928;2023-02-14T06:37:40;61.00;;;23.03;;
5612;SDS011;63463;53.586;9.928;2023-02-14T06:40:08;55.80;;;23.93;;
5612;SDS011;63463;53.586;9.928;2023-02-14T06:42:34;61.53;;;22.00;;
5612;SDS011;63463;53.586;9.928;2023-02-14T06:45:00;52.40;;;22.33;;
5612;SDS011;63463;53.586;9.928;2023-02-14T06:47:26;52.57;;;22.27;;
5612;SDS011;63463;53.586;9.928;2023-02-14T06:49:52;53.90;;;21.13;;
5612;SDS011;63463;53.586;9.928;2023-02-14T06:52:18;55.53;;;20.43;;
5612;SDS011;63463;53.586;9.928;2023-02-14T06:54:44;58.87;;;22.30;;
5612;SDS011;63463;53.586;9.928;2023-02-14T06:57:10;75.03;;;25.00;;
5612;SDS011;63463;53.586;9.928;2023-02-14T06:59:36;55.70;;;21.90;;
5612;SDS011;63463;53.586;9.928;2023-02-14T07:02:02;55.73;;;23.47;;
5612;SDS011;63463;53.586;9.928;2023-02-14T07:04:28;52.13;;;20.90;;
5612;SDS011;63463;53.586;9.928;2023-02-14T07:06:54;54.10;;;21.40;;
5612;SDS011;63463;53.586;9.928;2023-02-14T07:09:20;44.10;;;19.13;;
5612;SDS011;63463;53.586;9.928;2023-02-14T07:11:46;41.83;;;18.60;;
5612;SDS011;63463;53.586;9.928;2023-02-14T07:14:12;54.60;;;21.10;;
5612;SDS011;63463;53.586;9.928;2023-02-14T07:16:38;43.30;;;18.93;;
5612;SDS011;63463;53.586;9.928;2023-02-14T07:19:04;49.27;;;18.57;;
5612;SDS011;63463;53.586;9.928;2023-02-14T07:21:30;49.43;;;20.20;;
5612;SDS011;63463;53.586;9.928;2023-02-14T07:23:56;51.20;;;19.63;;
5612;SDS011;63463;53.586;9.928;2023-02-14T07:26:22;46.10;;;18.67;;
5612;SDS011;63463;53.586;9.928;2023-02-14T07:28:48;52.67;;;19.17;;
5612;SDS011;63463;53.586;9.928;2023-02-14T07:31:15;43.70;;;19.60;;
5612;SDS011;63463;53.586;9.928;2023-02-14T07:33:42;41.70;;;17.73;;
5612;SDS011;63463;53.586;9.928;2023-02-14T07:36:08;51.23;;;19.67;;
5612;SDS011;63463;53.586;9.928;2023-02-14T07:38:34;46.60;;;20.33;;
5612;SDS011;63463;53.586;9.928;2023-02-14T07:41:00;50.67;;;19.67;;
5612;SDS011;63463;53.586;9.928;2023-02-14T07:43:26;47.27;;;19.10;;
5612;SDS011;63463;53.586;9.928;2023-02-14T07:45:53;47.57;;;18.93;;
5612;SDS011;63463;53.586;9.928;2023-02-14T07:48:19;36.33;;;17.70;;
5612;SDS011;63463;53.586;9.928;2023-02-14T07:50:45;44.63;;;18.70;;
5612;SDS011;63463;53.586;9.928;2023-02-14T07:53:11;35.87;;;16.93;;
5612;SDS011;63463;53.586;9.928;2023-02-14T07:55:37;39.87;;;17.67;;
5612;SDS011;63463;53.586;9.928;2023-02-14T07:58:04;38.47;;;18.03;;
5612;SDS011;63463;53.586;9.928;2023-02-14T08:00:30;41.37;;;17.50;;
5612;SDS011;63463;53.586;9.928;2023-02-14T08:02:56;41.43;;;17.40;;
5612;SDS011;63463;53.586;9.928;2023-02-14T08:05:22;45.57;;;18.50;;
5612;SDS011;63463;53.586;9.928;2023-02-14T08:07:48;42.13;;;18.00;;
5612;SDS011;63463;53.586;9.928;2023-02-14T08:10:14;38.13;;;17.47;;
5612;SDS011;63463;53.586;9.928;2023-02-14T08:12:40;43.10;;;18.83;;
5612;SDS011;63463;53.586;9.928;2023-02-14T08:15:25;39.40;;;16.83;;
5612;SDS011;63463;53.586;9.928;2023-02-14T08:18:10;36.57;;;18.00;;
5612;SDS011;63463;53.586;9.928;2023-02-14T08:20:36;39.60;;;17.27;;
5612;SDS011;63463;53.586;9.928;2023-02-14T08:23:02;49.87;;;18.20;;
5612;SDS011;63463;53.586;9.928;2023-02-14T08:25:28;36.17;;;18.17;;
5612;SDS011;63463;53.586;9.928;2023-02-14T08:27:54;39.90;;;17.50;;
5612;SDS011;63463;53.586;9.928;2023-02-14T08:30:20;37.00;;;17.07;;
5612;SDS011;63463;53.586;9.928;2023-02-14T08:32:46;38.33;;;18.97;;
5612;SDS011;63463;53.586;9.928;2023-02-14T08:35:12;36.60;;;16.23;;
5612;SDS011;63463;53.586;9.928;2023-02-14T08:37:38;37.67;;;17.10;;
5612;SDS011;63463;53.586;9.928;2023-02-14T08:40:04;32.10;;;16.70;;
5612;SDS011;63463;53.586;9.928;2023-02-14T08:42:31;35.00;;;15.97;;
5612;SDS011;63463;53.586;9.928;2023-02-14T08:44:57;36.20;;;17.10;;
5612;SDS011;63463;53.586;9.928;2023-02-14T08:47:23;39.80;;;16.93;;
5612;SDS011;63463;53.586;9.928;2023-02-14T08:49:49;37.17;;;16.60;;
5612;SDS011;63463;53.586;9.928;2023-02-14T08:52:15;34.93;;;16.87;;
5612;SDS011;63463;53.586;9.928;2023-02-14T08:54:41;35.80;;;16.00;;
5612;SDS011;63463;53.586;9.928;2023-02-14T08:57:07;35.03;;;16.90;;
5612;SDS011;63463;53.586;9.928;2023-02-14T08:59:33;35.03;;;16.80;;
5612;SDS011;63463;53.586;9.928;2023-02-14T09:01:59;36.90;;;17.37;;
5612;SDS011;63463;53.586;9.928;2023-02-14T09:04:25;36.67;;;15.77;;
5612;SDS011;63463;53.586;9.928;2023-02-14T09:06:51;34.33;;;16.20;;
5612;SDS011;63463;53.586;9.928;2023-02-14T09:09:17;37.80;;;16.10;;
5612;SDS011;63463;53.586;9.928;2023-02-14T09:11:43;32.90;;;16.73;;
5612;SDS011;63463;53.586;9.928;2023-02-14T09:14:09;36.27;;;17.97;;
5612;SDS011;63463;53.586;9.928;2023-02-14T09:16:35;34.60;;;16.20;;
5612;SDS011;63463;53.586;9.928;2023-02-14T09:19:01;33.63;;;16.40;;
5612;SDS011;63463;53.586;9.928;2023-02-14T09:21:27;35.80;;;16.93;;
5612;SDS011;63463;53.586;9.928;2023-02-14T09:23:53;31.53;;;16.60;;
5612;SDS011;63463;53.586;9.928;2023-02-14T09:26:19;36.80;;;18.20;;
5612;SDS011;63463;53.586;9.928;2023-02-14T09:28:45;36.20;;;17.10;;
5612;SDS011;63463;53.586;9.928;2023-02-14T09:31:13;36.80;;;16.13;;
5612;SDS011;63463;53.586;9.928;2023-02-14T09:33:39;35.90;;;16.57;;
5612;SDS011;63463;53.586;9.928;2023-02-14T09:36:05;46.83;;;17.63;;
5612;SDS011;63463;53.586;9.928;2023-02-14T09:38:50;32.47;;;15.90;;
5612;SDS011;63463;53.586;9.928;2023-02-14T09:41:31;31.77;;;16.17;;
5612;SDS011;63463;53.586;9.928;2023-02-14T09:44:02;34.90;;;16.33;;
5612;SDS011;63463;53.586;9.928;2023-02-14T09:46:32;31.20;;;15.77;;
5612;SDS011;63463;53.586;9.928;2023-02-14T09:49:04;43.73;;;17.73;;
5612;SDS011;63463;53.586;9.928;2023-02-14T09:51:33;38.00;;;17.30;;
5612;SDS011;63463;53.586;9.928;2023-02-14T09:54:33;32.20;;;15.77;;
5612;SDS011;63463;53.586;9.928;2023-02-14T09:57:02;33.87;;;16.27;;
5612;SDS011;63463;53.586;9.928;2023-02-14T10:02:00;34.63;;;16.30;;
5612;SDS011;63463;53.586;9.928;2023-02-14T10:04:47;35.43;;;17.33;;
5612;SDS011;63463;53.586;9.928;2023-02-14T10:07:23;35.30;;;15.80;;
5612;SDS011;63463;53.586;9.928;2023-02-14T10:12:36;33.70;;;16.80;;
5612;SDS011;63463;53.586;9.928;2023-02-14T10:15:13;37.13;;;16.80;;
5612;SDS011;63463;53.586;9.928;2023-02-14T10:18:23;37.27;;;16.27;;
5612;SDS011;63463;53.586;9.928;2023-02-14T10:20:34;33.13;;;16.50;;
5612;SDS011;63463;53.586;9.928;2023-02-14T10:23:04;33.10;;;16.70;;
5612;SDS011;63463;53.586;9.928;2023-02-14T10:28:47;36.60;;;17.27;;
5612;SDS011;63463;53.586;9.928;2023-02-14T10:31:16;34.90;;;16.33;;
5612;SDS011;63463;53.586;9.928;2023-02-14T10:36:51;34.40;;;17.40;;
5612;SDS011;63463;53.586;9.928;2023-02-14T10:39:23;34.90;;;16.97;;
5612;SDS011;63463;53.586;9.928;2023-02-14T10:42:03;32.73;;;16.87;;
5612;SDS011;63463;53.586;9.928;2023-02-14T10:50:09;43.80;;;17.47;;
5612;SDS011;63463;53.586;9.928;2023-02-14T10:52:51;36.17;;;16.97;;
5612;SDS011;63463;53.586;9.928;2023-02-14T10:55:37;36.23;;;17.20;;
5612;SDS011;63463;53.586;9.928;2023-02-14T10:58:05;31.30;;;16.37;;
5612;SDS011;63463;53.586;9.928;2023-02-14T11:00:33;40.70;;;17.70;;
5612;SDS011;63463;53.586;9.928;2023-02-14T11:03:00;33.73;;;16.80;;
5612;SDS011;63463;53.586;9.928;2023-02-14T11:05:48;35.80;;;17.60;;
5612;SDS011;63463;53.586;9.928;2023-02-14T11:10:40;37.40;;;17.00;;
5612;SDS011;63463;53.586;9.928;2023-02-14T11:13:25;41.00;;;17.63;;
5612;SDS011;63463;53.586;9.928;2023-02-14T11:15:51;33.73;;;17.13;;
5612;SDS011;63463;53.586;9.928;2023-02-14T11:23:38;38.53;;;18.17;;
5612;SDS011;63463;53.586;9.928;2023-02-14T11:26:07;43.80;;;17.77;;
5612;SDS011;63463;53.586;9.928;2023-02-14T11:39:49;53.43;;;19.53;;
5612;SDS011;63463;53.586;9.928;2023-02-14T11:42:31;39.30;;;18.07;;
5612;SDS011;63463;53.586;9.928;2023-02-14T11:50:34;37.50;;;18.43;;
5612;SDS011;63463;53.586;9.928;2023-02-14T11:53:01;36.30;;;17.73;;
5612;SDS011;63463;53.586;9.928;2023-02-14T11:55:28;48.27;;;18.90;;
5612;SDS011;63463;53.586;9.928;2023-02-14T11:57:55;43.50;;;18.40;;
5612;SDS011;63463;53.586;9.928;2023-02-14T12:00:22;38.37;;;17.30;;
5612;SDS011;63463;53.586;9.928;2023-02-14T12:02:51;42.20;;;18.73;;
5612;SDS011;63463;53.586;9.928;2023-02-14T12:05:27;37.33;;;18.17;;
5612;SDS011;63463;53.586;9.928;2023-02-14T12:07:59;37.87;;;18.10;;
5612;SDS011;63463;53.586;9.928;2023-02-14T12:15:28;37.80;;;19.37;;
5612;SDS011;63463;53.586;9.928;2023-02-14T12:20:40;37.80;;;17.53;;
5612;SDS011;63463;53.586;9.928;2023-02-14T12:23:26;42.97;;;18.60;;
5612;SDS011;63463;53.586;9.928;2023-02-14T12:25:57;41.03;;;18.37;;
5612;SDS011;63463;53.586;9.928;2023-02-14T12:28:36;60.23;;;18.67;;
5612;SDS011;63463;53.586;9.928;2023-02-14T12:31:07;37.43;;;17.73;;
5612;SDS011;63463;53.586;9.928;2023-02-14T12:33:34;35.03;;;16.70;;
5612;SDS011;63463;53.586;9.928;2023-02-14T12:43:52;39.73;;;17.77;;
5612;SDS011;63463;53.586;9.928;2023-02-14T12:59:18;35.10;;;17.17;;
5612;SDS011;63463;53.586;9.928;2023-02-14T13:07:02;33.27;;;16.40;;
5612;SDS011;63463;53.586;9.928;2023-02-14T13:19:42;35.30;;;17.13;;
5612;SDS011;63463;53.586;9.928;2023-02-14T13:22:12;46.70;;;18.07;;
5612;SDS011;63463;53.586;9.928;2023-02-14T13:24:40;31.27;;;15.73;;
5612;SDS011;63463;53.586;9.928;2023-02-14T13:27:07;38.13;;;16.93;;
5612;SDS011;63463;53.586;9.928;2023-02-14T13:29:50;35.87;;;16.63;;
5612;SDS011;63463;53.586;9.928;2023-02-14T13:32:19;36.80;;;17.03;;
5612;SDS011;63463;53.586;9.928;2023-02-14T13:34:47;39.23;;;18.00;;
5612;SDS011;63463;53.586;9.928;2023-02-14T13:37:14;41.27;;;17.47;;
5612;SDS011;63463;53.586;9.928;2023-02-14T13:39:42;37.47;;;16.87;;
5612;SDS011;63463;53.586;9.928;2023-02-14T13:42:10;40.57;;;18.50;;
5612;SDS011;63463;53.586;9.928;2023-02-14T13:44:49;30.87;;;15.73;;
5612;SDS011;63463;53.586;9.928;2023-02-14T13:49:53;36.60;;;17.10;;
5612;SDS011;63463;53.586;9.928;2023-02-14T13:55:05;38.23;;;17.60;;
5612;SDS011;63463;53.586;9.928;2023-02-14T13:57:35;45.00;;;18.10;;
5612;SDS011;63463;53.586;9.928;2023-02-14T14:02:55;36.83;;;16.90;;
5612;SDS011;63463;53.586;9.928;2023-02-14T14:10:45;38.53;;;17.77;;
5612;SDS011;63463;53.586;9.928;2023-02-14T14:16:17;36.20;;;18.27;;
5612;SDS011;63463;53.586;9.928;2023-02-14T14:18:44;34.40;;;18.27;;
5612;SDS011;63463;53.586;9.928;2023-02-14T14:21:13;34.83;;;17.90;;
5612;SDS011;63463;53.586;9.928;2023-02-14T14:23:40;39.47;;;17.23;;
5612;SDS011;63463;53.586;9.928;2023-02-14T14:28:50;34.20;;;17.23;;
5612;SDS011;63463;53.586;9.928;2023-02-14T14:31:18;29.10;;;15.97;;
5612;SDS011;63463;53.586;9.928;2023-02-14T14:33:45;36.63;;;16.30;;
5612;SDS011;63463;53.586;9.928;2023-02-14T14:36:19;36.17;;;16.87;;
5612;SDS011;63463;53.586;9.928;2023-02-14T14:38:47;32.43;;;16.20;;
5612;SDS011;63463;53.586;9.928;2023-02-14T14:41:14;40.37;;;17.97;;
5612;SDS011;63463;53.586;9.928;2023-02-14T14:43:40;37.30;;;17.50;;
5612;SDS011;63463;53.586;9.928;2023-02-14T14:46:08;35.93;;;16.97;;
5612;SDS011;63463;53.586;9.928;2023-02-14T14:48:45;44.07;;;19.20;;
5612;SDS011;63463;53.586;9.928;2023-02-14T14:51:16;41.00;;;17.70;;
5612;SDS011;63463;53.586;9.928;2023-02-14T14:53:47;36.73;;;16.07;;
5612;SDS011;63463;53.586;9.928;2023-02-14T14:56:19;35.20;;;17.17;;
5612;SDS011;63463;53.586;9.928;2023-02-14T14:58:45;36.83;;;17.20;;
5612;SDS011;63463;53.586;9.928;2023-02-14T15:01:12;36.27;;;17.17;;
5612;SDS011;63463;53.586;9.928;2023-02-14T15:03:45;37.73;;;17.47;;
5612;SDS011;63463;53.586;9.928;2023-02-14T15:06:20;29.37;;;15.63;;
5612;SDS011;63463;53.586;9.928;2023-02-14T15:08:47;45.30;;;16.00;;
5612;SDS011;63463;53.586;9.928;2023-02-14T15:13:59;35.20;;;15.47;;
5612;SDS011;63463;53.586;9.928;2023-02-14T15:16:33;30.77;;;15.90;;
5612;SDS011;63463;53.586;9.928;2023-02-14T15:19:05;28.10;;;15.60;;
5612;SDS011;63463;53.586;9.928;2023-02-14T15:21:32;36.20;;;15.77;;
5612;SDS011;63463;53.586;9.928;2023-02-14T15:23:59;31.33;;;15.97;;
5612;SDS011;63463;53.586;9.928;2023-02-14T15:26:27;33.23;;;15.73;;
5612;SDS011;63463;53.586;9.928;2023-02-14T15:28:54;28.60;;;14.27;;
5612;SDS011;63463;53.586;9.928;2023-02-14T15:31:21;31.50;;;15.30;;
5612;SDS011;63463;53.586;9.928;2023-02-14T15:33:47;32.17;;;15.80;;
5612;SDS011;63463;53.586;9.928;2023-02-14T15:39:17;35.40;;;16.93;;
5612;SDS011;63463;53.586;9.928;2023-02-14T15:41:43;36.73;;;16.77;;
5612;SDS011;63463;53.586;9.928;2023-02-14T15:44:23;30.20;;;15.07;;
5612;SDS011;63463;53.586;9.928;2023-02-14T15:46:53;32.30;;;15.70;;
5612;SDS011;63463;53.586;9.928;2023-02-14T15:49:20;37.00;;;16.30;;
5612;SDS011;63463;53.586;9.928;2023-02-14T15:51:47;34.00;;;15.63;;
5612;SDS011;63463;53.586;9.928;2023-02-14T15:54:26;33.87;;;15.77;;
5612;SDS011;63463;53.586;9.928;2023-02-14T15:56:55;31.80;;;14.53;;
5612;SDS011;63463;53.586;9.928;2023-02-14T15:59:23;36.80;;;15.63;;
5612;SDS011;63463;53.586;9.928;2023-02-14T16:01:55;29.03;;;14.87;;
5612;SDS011;63463;53.586;9.928;2023-02-14T16:04:33;30.33;;;15.83;;
5612;SDS011;63463;53.586;9.928;2023-02-14T16:10:23;38.00;;;16.37;;
5612;SDS011;63463;53.586;9.928;2023-02-14T16:12:59;28.40;;;14.77;;
5612;SDS011;63463;53.586;9.928;2023-02-14T16:15:31;40.03;;;15.83;;
5612;SDS011;63463;53.586;9.928;2023-02-14T16:17:58;31.77;;;16.80;;
5612;SDS011;63463;53.586;9.928;2023-02-14T16:20:29;33.97;;;15.93;;
5612;SDS011;63463;53.586;9.928;2023-02-14T16:25:42;28.90;;;14.87;;
5612;SDS011;63463;53.586;9.928;2023-02-14T16:28:09;31.00;;;15.40;;
5612;SDS011;63463;53.586;9.928;2023-02-14T16:30:36;30.03;;;15.83;;
5612;SDS011;63463;53.586;9.928;2023-02-14T16:33:02;35.70;;;16.13;;
5612;SDS011;63463;53.586;9.928;2023-02-14T16:35:30;31.37;;;15.53;;
5612;SDS011;63463;53.586;9.928;2023-02-14T16:37:57;31.63;;;15.70;;
5612;SDS011;63463;53.586;9.928;2023-02-14T16:40:24;37.50;;;17.13;;
5612;SDS011;63463;53.586;9.928;2023-02-14T16:42:51;31.13;;;15.43;;
5612;SDS011;63463;53.586;9.928;2023-02-14T16:45:18;39.07;;;16.60;;
5612;SDS011;63463;53.586;9.928;2023-02-14T16:47:45;32.30;;;15.40;;
5612;SDS011;63463;53.586;9.928;2023-02-14T16:50:12;27.57;;;14.80;;
5612;SDS011;63463;53.586;9.928;2023-02-14T16:52:38;36.60;;;16.83;;
5612;SDS011;63463;53.586;9.928;2023-02-14T16:55:05;32.50;;;15.73;;
5612;SDS011;63463;53.586;9.928;2023-02-14T16:57:33;33.83;;;17.03;;
5612;SDS011;63463;53.586;9.928;2023-02-14T17:00:00;34.40;;;16.43;;
5612;SDS011;63463;53.586;9.928;2023-02-14T17:02:27;28.73;;;15.13;;
5612;SDS011;63463;53.586;9.928;2023-02-14T17:04:53;34.63;;;15.77;;
5612;SDS011;63463;53.586;9.928;2023-02-14T17:07:19;28.83;;;15.50;;
5612;SDS011;63463;53.586;9.928;2023-02-14T17:09:47;30.40;;;15.60;;
5612;SDS011;63463;53.586;9.928;2023-02-14T17:12:17;38.57;;;17.10;;
5612;SDS011;63463;53.586;9.928;2023-02-14T17:14:46;35.43;;;15.70;;
5612;SDS011;63463;53.586;9.928;2023-02-14T17:17:19;30.57;;;14.80;;